South Hadley, MA (01075)

6:26 AM EST on November 23, 2014 (GMT -0500)
South Hadley & surrounded by trees | Change Station
CLOSE
Current Station
Personal Weather Station
Location: South Hadley, MA
Elevation: 265 ft
Nearby Weather Stations

Elev 265 ft 42.27 °N, 72.52 °W | Updated 12 seconds ago

Overcast
Overcast
34.2 °F
Feels Like 34 °F
N
0.0
Wind Variable Wind from WSW
Gusts 0.0 mph

Today
High -- | Low -- °F
--% Chance of Precip.
Yesterday
High -- | Low -- °F
Precip. -- in
6:50 AM 4:22 PM
New Moon, 1% visible
Pressure 30.13 in
Visibility 10.0 miles
Clouds Mostly Cloudy 4700 ft
Mostly Cloudy 5500 ft
Windchill 34 °F
Dew Point 25 °F
Humidity 70%
Rainfall 0.00 in
Snow Depth Not available.
UV 0 out of 12
Pollen .10 out of 12
Air Quality Not available.
Flu Activity Not available.
METAR KCEF 231058Z AUTO 17002KT 10SM BKN047 BKN055 01/M02 A3010 RMK AO2 SLP201 T00131024

More Conditions Fewer Conditions

Pressure 30.13 in
Visibility 10.0 miles
Clouds Mostly Cloudy 4700 ft
Mostly Cloudy 5500 ft
Windchill 34 °F
Dew Point 25 °F
Humidity 70%
Rainfall 0.00 in
Snow Depth Not available.
UV 0 out of 12
Pollen .10 out of 12
Air Quality Not available.
Flu Activity Not available.
METAR KCEF 231058Z AUTO 17002KT 10SM BKN047 BKN055 01/M02 A3010 RMK AO2 SLP201 T00131024

More Conditions Fewer Conditions

10-Day Weather Forecast

Almanac

Astronomy

Nov. 23, 2014 Rise Set
Actual Time
Civil Twilight
Nautical Twilight
Astronomical Twilight
Moon
Length of Visible Light
Length of Day
Tomorrow will be .
, % of the Moon is Illuminated

Today's Extremes

State Highs State Lows

Community

WunderPhotos

Upload Photos

1,773,036 photos uploaded!

WunderBlogs® & News

Nearby

Air Quality

  Air Quality AQ Index Pollutant
Not available.

Snow Depth

Station Depth Elevation

Earthquake Activity

City Distance Mag. Time & Date
Minimum magnitude displayed is 2.5.

Coastal Water Temperatures

Place Temperature

Nearby Weather Stations